sensor_id;sensor_type;location;lat;lon;timestamp;temperature;humidity
63966;DHT22;50151;52.030;5.350;2022-08-25T07:55:15;24.20;58.90
63966;DHT22;50151;52.030;5.350;2022-08-25T07:57:43;24.30;59.20
63966;DHT22;50151;52.030;5.350;2022-08-25T08:00:13;24.40;58.30
63966;DHT22;50151;52.030;5.350;2022-08-25T08:02:41;24.40;58.40
63966;DHT22;50151;52.030;5.350;2022-08-25T08:05:09;24.60;59.10
63966;DHT22;50151;52.030;5.350;2022-08-25T08:07:37;24.60;58.40
63966;DHT22;50151;52.030;5.350;2022-08-25T08:10:09;24.70;57.00
63966;DHT22;50151;52.030;5.350;2022-08-25T08:12:56;24.80;56.80
63966;DHT22;50151;52.030;5.350;2022-08-25T08:15:23;24.90;57.60
63966;DHT22;50151;52.030;5.350;2022-08-25T08:17:53;24.90;57.70
63966;DHT22;50151;52.030;5.350;2022-08-25T08:20:20;25.00;56.80
63966;DHT22;50151;52.030;5.350;2022-08-25T08:22:51;25.10;56.70
63966;DHT22;50151;52.030;5.350;2022-08-25T08:25:18;25.10;56.20
63966;DHT22;50151;52.030;5.350;2022-08-25T08:27:52;25.30;56.20
63966;DHT22;50151;52.030;5.350;2022-08-25T08:30:24;25.30;55.90
63966;DHT22;50151;52.030;5.350;2022-08-25T08:32:53;25.40;54.80
63966;DHT22;50151;52.030;5.350;2022-08-25T08:35:37;25.40;55.60
63966;DHT22;50151;52.030;5.350;2022-08-25T08:38:04;25.50;55.40
63966;DHT22;50151;52.030;5.350;2022-08-25T08:40:48;25.60;55.80
63966;DHT22;50151;52.030;5.350;2022-08-25T08:43:40;25.80;54.70
63966;DHT22;50151;52.030;5.350;2022-08-25T08:46:07;25.80;55.40
63966;DHT22;50151;52.030;5.350;2022-08-25T08:48:47;25.90;53.50
63966;DHT22;50151;52.030;5.350;2022-08-25T08:51:20;26.00;54.10
63966;DHT22;50151;52.030;5.350;2022-08-25T08:54:02;26.00;54.30
63966;DHT22;50151;52.030;5.350;2022-08-25T08:56:43;26.10;53.40
63966;DHT22;50151;52.030;5.350;2022-08-25T08:59:18;26.20;53.70
63966;DHT22;50151;52.030;5.350;2022-08-25T09:01:58;26.30;52.40
63966;DHT22;50151;52.030;5.350;2022-08-25T09:04:34;26.40;52.00
63966;DHT22;50151;52.030;5.350;2022-08-25T09:07:09;26.60;52.20
63966;DHT22;50151;52.030;5.350;2022-08-25T09:09:40;26.70;51.10
63966;DHT22;50151;52.030;5.350;2022-08-25T09:12:25;26.70;50.30
63966;DHT22;50151;52.030;5.350;2022-08-25T09:18:04;27.00;49.30
63966;DHT22;50151;52.030;5.350;2022-08-25T09:20:40;27.10;49.00
63966;DHT22;50151;52.030;5.350;2022-08-25T09:23:42;27.20;48.80
63966;DHT22;50151;52.030;5.350;2022-08-25T09:29:22;27.40;47.50
63966;DHT22;50151;52.030;5.350;2022-08-25T09:31:56;27.40;47.60
63966;DHT22;50151;52.030;5.350;2022-08-25T09:34:29;27.60;47.80
63966;DHT22;50151;52.030;5.350;2022-08-25T09:36:58;27.70;47.10
63966;DHT22;50151;52.030;5.350;2022-08-25T09:39:26;27.90;46.80
63966;DHT22;50151;52.030;5.350;2022-08-25T09:41:58;27.90;46.80
63966;DHT22;50151;52.030;5.350;2022-08-25T09:44:42;28.00;45.70
63966;DHT22;50151;52.030;5.350;2022-08-25T09:49:49;28.10;45.10
63966;DHT22;50151;52.030;5.350;2022-08-25T09:55:28;28.30;45.30
63966;DHT22;50151;52.030;5.350;2022-08-25T09:57:58;28.40;44.30
63966;DHT22;50151;52.030;5.350;2022-08-25T10:00:33;28.60;44.50
63966;DHT22;50151;52.030;5.350;2022-08-25T10:03:11;28.70;44.50
63966;DHT22;50151;52.030;5.350;2022-08-25T10:11:01;29.10;43.30
63966;DHT22;50151;52.030;5.350;2022-08-25T10:13:39;29.20;43.20
63966;DHT22;50151;52.030;5.350;2022-08-25T10:16:21;29.30;44.60
63966;DHT22;50151;52.030;5.350;2022-08-25T10:19:27;29.50;44.00
63966;DHT22;50151;52.030;5.350;2022-08-25T10:22:25;29.50;43.00
63966;DHT22;50151;52.030;5.350;2022-08-25T10:24:59;29.70;41.50
63966;DHT22;50151;52.030;5.350;2022-08-25T10:27:41;29.80;41.90
63966;DHT22;50151;52.030;5.350;2022-08-25T10:38:30;30.00;41.00
63966;DHT22;50151;52.030;5.350;2022-08-25T10:44:32;30.00;40.10
63966;DHT22;50151;52.030;5.350;2022-08-25T10:50:22;30.30;39.60
63966;DHT22;50151;52.030;5.350;2022-08-25T10:53:09;30.50;38.20
63966;DHT22;50151;52.030;5.350;2022-08-25T10:55:47;30.80;39.00
63966;DHT22;50151;52.030;5.350;2022-08-25T11:01:14;30.90;38.00
63966;DHT22;50151;52.030;5.350;2022-08-25T11:03:56;30.90;37.90
63966;DHT22;50151;52.030;5.350;2022-08-25T11:09:23;30.90;37.10
63966;DHT22;50151;52.030;5.350;2022-08-25T11:11:57;31.10;37.80
63966;DHT22;50151;52.030;5.350;2022-08-25T11:14:36;31.30;38.10
63966;DHT22;50151;52.030;5.350;2022-08-25T11:17:26;31.50;37.40
63966;DHT22;50151;52.030;5.350;2022-08-25T11:19:59;31.60;37.40
63966;DHT22;50151;52.030;5.350;2022-08-25T11:22:34;31.60;36.60
63966;DHT22;50151;52.030;5.350;2022-08-25T11:30:37;31.60;36.70
63966;DHT22;50151;52.030;5.350;2022-08-25T11:33:06;31.70;36.10
63966;DHT22;50151;52.030;5.350;2022-08-25T11:35:42;32.00;36.10
63966;DHT22;50151;52.030;5.350;2022-08-25T11:41:35;32.10;34.50
63966;DHT22;50151;52.030;5.350;2022-08-25T11:57:50;31.80;33.80
63966;DHT22;50151;52.030;5.350;2022-08-25T12:00:41;31.70;34.80
63966;DHT22;50151;52.030;5.350;2022-08-25T12:03:48;31.70;35.10
63966;DHT22;50151;52.030;5.350;2022-08-25T12:06:30;31.70;34.80
63966;DHT22;50151;52.030;5.350;2022-08-25T12:14:40;32.30;34.20
63966;DHT22;50151;52.030;5.350;2022-08-25T12:17:22;32.50;33.60
63966;DHT22;50151;52.030;5.350;2022-08-25T12:19:52;32.70;32.40
63966;DHT22;50151;52.030;5.350;2022-08-25T12:24:54;33.30;33.00
63966;DHT22;50151;52.030;5.350;2022-08-25T12:30:41;33.30;31.60
63966;DHT22;50151;52.030;5.350;2022-08-25T12:33:37;33.50;32.10
63966;DHT22;50151;52.030;5.350;2022-08-25T12:36:05;33.50;30.70
63966;DHT22;50151;52.030;5.350;2022-08-25T12:38:47;33.50;31.80
63966;DHT22;50151;52.030;5.350;2022-08-25T12:41:26;33.70;31.40
63966;DHT22;50151;52.030;5.350;2022-08-25T12:44:18;33.80;31.10
63966;DHT22;50151;52.030;5.350;2022-08-25T12:47:13;33.80;31.50
63966;DHT22;50151;52.030;5.350;2022-08-25T12:49:50;33.90;30.60
63966;DHT22;50151;52.030;5.350;2022-08-25T12:52:22;34.00;30.20
63966;DHT22;50151;52.030;5.350;2022-08-25T12:54:57;34.20;29.00
63966;DHT22;50151;52.030;5.350;2022-08-25T13:00:00;34.80;30.00
63966;DHT22;50151;52.030;5.350;2022-08-25T13:11:10;35.20;29.80
63966;DHT22;50151;52.030;5.350;2022-08-25T13:16:28;35.70;29.00
63966;DHT22;50151;52.030;5.350;2022-08-25T13:18:57;35.60;29.50
63966;DHT22;50151;52.030;5.350;2022-08-25T13:21:41;35.90;29.50
63966;DHT22;50151;52.030;5.350;2022-08-25T13:24:10;36.30;29.60
63966;DHT22;50151;52.030;5.350;2022-08-25T13:26:41;36.10;28.40
63966;DHT22;50151;52.030;5.350;2022-08-25T13:29:35;36.10;28.00
63966;DHT22;50151;52.030;5.350;2022-08-25T13:32:07;36.20;28.10
63966;DHT22;50151;52.030;5.350;2022-08-25T13:34:40;36.10;28.00
63966;DHT22;50151;52.030;5.350;2022-08-25T13:37:17;36.30;27.70
63966;DHT22;50151;52.030;5.350;2022-08-25T13:40:10;36.10;27.70
63966;DHT22;50151;52.030;5.350;2022-08-25T13:42:41;36.10;28.60
63966;DHT22;50151;52.030;5.350;2022-08-25T13:45:12;35.80;28.00
63966;DHT22;50151;52.030;5.350;2022-08-25T13:47:41;36.10;28.00
63966;DHT22;50151;52.030;5.350;2022-08-25T13:50:41;36.40;27.50
63966;DHT22;50151;52.030;5.350;2022-08-25T13:53:22;36.80;27.90
63966;DHT22;50151;52.030;5.350;2022-08-25T13:58:24;36.90;27.60
63966;DHT22;50151;52.030;5.350;2022-08-25T14:01:21;37.20;27.10
63966;DHT22;50151;52.030;5.350;2022-08-25T14:06:46;37.40;26.70
63966;DHT22;50151;52.030;5.350;2022-08-25T14:09:16;37.50;27.10
63966;DHT22;50151;52.030;5.350;2022-08-25T14:11:56;37.30;26.70
63966;DHT22;50151;52.030;5.350;2022-08-25T14:16:57;37.70;26.60
63966;DHT22;50151;52.030;5.350;2022-08-25T14:19:24;37.90;26.30
63966;DHT22;50151;52.030;5.350;2022-08-25T14:21:51;37.60;25.40
63966;DHT22;50151;52.030;5.350;2022-08-25T14:24:22;37.70;25.80
63966;DHT22;50151;52.030;5.350;2022-08-25T14:26:50;37.80;26.00
63966;DHT22;50151;52.030;5.350;2022-08-25T14:29:20;37.80;25.30
63966;DHT22;50151;52.030;5.350;2022-08-25T14:31:48;37.80;25.20
63966;DHT22;50151;52.030;5.350;2022-08-25T14:34:21;37.50;24.80
63966;DHT22;50151;52.030;5.350;2022-08-25T14:36:49;37.80;25.80
63966;DHT22;50151;52.030;5.350;2022-08-25T14:39:17;37.80;25.10
63966;DHT22;50151;52.030;5.350;2022-08-25T14:41:44;37.80;25.40
63966;DHT22;50151;52.030;5.350;2022-08-25T14:44:20;38.00;26.40
63966;DHT22;50151;52.030;5.350;2022-08-25T14:46:52;37.80;25.20
63966;DHT22;50151;52.030;5.350;2022-08-25T14:49:24;38.20;25.70
63966;DHT22;50151;52.030;5.350;2022-08-25T14:51:56;38.10;25.10
63966;DHT22;50151;52.030;5.350;2022-08-25T14:54:26;38.20;25.70
63966;DHT22;50151;52.030;5.350;2022-08-25T14:56:54;38.10;24.50
63966;DHT22;50151;52.030;5.350;2022-08-25T14:59:22;38.20;24.80
63966;DHT22;50151;52.030;5.350;2022-08-25T15:01:49;38.20;25.10
63966;DHT22;50151;52.030;5.350;2022-08-25T15:04:18;38.30;24.80
63966;DHT22;50151;52.030;5.350;2022-08-25T15:06:51;38.00;25.10
63966;DHT22;50151;52.030;5.350;2022-08-25T15:09:20;37.50;25.30
63966;DHT22;50151;52.030;5.350;2022-08-25T15:11:50;37.10;25.80
63966;DHT22;50151;52.030;5.350;2022-08-25T15:14:21;36.80;25.70
63966;DHT22;50151;52.030;5.350;2022-08-25T15:16:59;36.60;26.90
63966;DHT22;50151;52.030;5.350;2022-08-25T15:19:27;36.50;25.60
63966;DHT22;50151;52.030;5.350;2022-08-25T15:21:54;36.50;26.00
63966;DHT22;50151;52.030;5.350;2022-08-25T15:24:24;36.30;26.60
63966;DHT22;50151;52.030;5.350;2022-08-25T15:26:58;36.00;26.10
63966;DHT22;50151;52.030;5.350;2022-08-25T15:29:27;36.30;26.10
63966;DHT22;50151;52.030;5.350;2022-08-25T15:31:56;36.20;26.40
63966;DHT22;50151;52.030;5.350;2022-08-25T15:34:23;36.00;25.50
63966;DHT22;50151;52.030;5.350;2022-08-25T15:36:50;36.20;26.00
63966;DHT22;50151;52.030;5.350;2022-08-25T15:39:17;35.80;26.30
63966;DHT22;50151;52.030;5.350;2022-08-25T15:41:45;35.90;26.30
63966;DHT22;50151;52.030;5.350;2022-08-25T15:44:15;36.00;27.10
63966;DHT22;50151;52.030;5.350;2022-08-25T15:46:42;36.30;27.10
63966;DHT22;50151;52.030;5.350;2022-08-25T15:49:16;36.00;26.80
63966;DHT22;50151;52.030;5.350;2022-08-25T15:51:52;35.90;27.60
63966;DHT22;50151;52.030;5.350;2022-08-25T15:54:20;35.80;27.30
63966;DHT22;50151;52.030;5.350;2022-08-25T15:56:48;35.80;27.60
63966;DHT22;50151;52.030;5.350;2022-08-25T15:59:15;35.60;27.20
63966;DHT22;50151;52.030;5.350;2022-08-25T16:01:42;35.40;27.70
63966;DHT22;50151;52.030;5.350;2022-08-25T16:04:11;35.30;27.10
63966;DHT22;50151;52.030;5.350;2022-08-25T16:06:39;35.20;27.10
63966;DHT22;50151;52.030;5.350;2022-08-25T16:09:06;35.30;27.60
63966;DHT22;50151;52.030;5.350;2022-08-25T16:11:34;35.30;27.30
63966;DHT22;50151;52.030;5.350;2022-08-25T16:14:04;35.30;27.40
63966;DHT22;50151;52.030;5.350;2022-08-25T16:16:32;35.30;28.90
63966;DHT22;50151;52.030;5.350;2022-08-25T16:18:59;34.80;27.90
63966;DHT22;50151;52.030;5.350;2022-08-25T16:21:30;34.80;28.40
63966;DHT22;50151;52.030;5.350;2022-08-25T16:24:00;34.80;29.40
63966;DHT22;50151;52.030;5.350;2022-08-25T16:26:34;34.60;28.80
63966;DHT22;50151;52.030;5.350;2022-08-25T16:29:03;34.50;29.10
63966;DHT22;50151;52.030;5.350;2022-08-25T16:31:32;34.40;29.30
63966;DHT22;50151;52.030;5.350;2022-08-25T16:33:59;34.30;29.40
63966;DHT22;50151;52.030;5.350;2022-08-25T16:36:27;34.40;29.90
63966;DHT22;50151;52.030;5.350;2022-08-25T16:38:55;34.30;30.10
63966;DHT22;50151;52.030;5.350;2022-08-25T16:41:25;34.20;30.00
63966;DHT22;50151;52.030;5.350;2022-08-25T16:44:01;34.10;30.70
63966;DHT22;50151;52.030;5.350;2022-08-25T16:46:28;34.10;30.40
63966;DHT22;50151;52.030;5.350;2022-08-25T16:49:00;34.00;31.10
63966;DHT22;50151;52.030;5.350;2022-08-25T16:51:27;33.90;31.40
63966;DHT22;50151;52.030;5.350;2022-08-25T16:53:58;33.90;30.90
63966;DHT22;50151;52.030;5.350;2022-08-25T16:56:49;33.90;32.60
63966;DHT22;50151;52.030;5.350;2022-08-25T16:59:20;33.90;31.60
63966;DHT22;50151;52.030;5.350;2022-08-25T17:01:49;33.90;32.50
63966;DHT22;50151;52.030;5.350;2022-08-25T17:04:16;33.70;32.10
63966;DHT22;50151;52.030;5.350;2022-08-25T17:06:43;33.60;33.50
63966;DHT22;50151;52.030;5.350;2022-08-25T17:09:17;33.60;34.20
63966;DHT22;50151;52.030;5.350;2022-08-25T17:11:49;33.40;35.40
63966;DHT22;50151;52.030;5.350;2022-08-25T17:14:20;33.30;33.60
63966;DHT22;50151;52.030;5.350;2022-08-25T17:16:47;33.00;35.10
63966;DHT22;50151;52.030;5.350;2022-08-25T17:19:17;32.40;36.50
63966;DHT22;50151;52.030;5.350;2022-08-25T17:21:45;32.10;37.70
63966;DHT22;50151;52.030;5.350;2022-08-25T17:24:15;32.10;38.40
63966;DHT22;50151;52.030;5.350;2022-08-25T17:26:43;31.90;39.00
63966;DHT22;50151;52.030;5.350;2022-08-25T17:29:16;31.70;39.60
63966;DHT22;50151;52.030;5.350;2022-08-25T17:31:43;31.30;40.20
63966;DHT22;50151;52.030;5.350;2022-08-25T17:34:14;30.80;39.90
63966;DHT22;50151;52.030;5.350;2022-08-25T17:36:42;30.90;40.30
63966;DHT22;50151;52.030;5.350;2022-08-25T17:39:11;30.70;40.80
63966;DHT22;50151;52.030;5.350;2022-08-25T17:41:40;30.60;41.40
63966;DHT22;50151;52.030;5.350;2022-08-25T17:44:09;30.60;41.50
63966;DHT22;50151;52.030;5.350;2022-08-25T17:46:41;30.60;41.50
63966;DHT22;50151;52.030;5.350;2022-08-25T17:49:14;30.60;41.40
63966;DHT22;50151;52.030;5.350;2022-08-25T17:51:41;30.70;41.60
63966;DHT22;50151;52.030;5.350;2022-08-25T17:54:08;30.70;41.90
63966;DHT22;50151;52.030;5.350;2022-08-25T17:56:36;30.50;42.50
63966;DHT22;50151;52.030;5.350;2022-08-25T17:59:03;30.40;42.70
63966;DHT22;50151;52.030;5.350;2022-08-25T18:01:32;30.30;43.00
63966;DHT22;50151;52.030;5.350;2022-08-25T18:03:59;30.30;42.70
63966;DHT22;50151;52.030;5.350;2022-08-25T18:06:27;30.40;43.40
63966;DHT22;50151;52.030;5.350;2022-08-25T18:08:57;30.30;43.00
63966;DHT22;50151;52.030;5.350;2022-08-25T18:11:26;30.30;43.20
63966;DHT22;50151;52.030;5.350;2022-08-25T18:13:55;30.00;43.40
63966;DHT22;50151;52.030;5.350;2022-08-25T18:16:23;30.10;43.50
63966;DHT22;50151;52.030;5.350;2022-08-25T18:18:53;30.10;43.70
63966;DHT22;50151;52.030;5.350;2022-08-25T18:21:22;30.00;44.40
63966;DHT22;50151;52.030;5.350;2022-08-25T18:23:55;29.90;45.00
63966;DHT22;50151;52.030;5.350;2022-08-25T18:26:22;29.80;45.00
63966;DHT22;50151;52.030;5.350;2022-08-25T18:28:51;29.60;45.40
63966;DHT22;50151;52.030;5.350;2022-08-25T18:31:17;29.50;46.20
63966;DHT22;50151;52.030;5.350;2022-08-25T18:33:45;29.30;46.60
63966;DHT22;50151;52.030;5.350;2022-08-25T18:36:16;29.10;47.60
63966;DHT22;50151;52.030;5.350;2022-08-25T18:38:44;29.00;48.00
63966;DHT22;50151;52.030;5.350;2022-08-25T18:41:36;28.90;48.40
63966;DHT22;50151;52.030;5.350;2022-08-25T18:44:03;28.80;49.10
63966;DHT22;50151;52.030;5.350;2022-08-25T18:46:30;28.30;51.80
63966;DHT22;50151;52.030;5.350;2022-08-25T18:48:57;28.20;53.20
63966;DHT22;50151;52.030;5.350;2022-08-25T18:51:24;28.20;53.20
63966;DHT22;50151;52.030;5.350;2022-08-25T18:53:51;28.10;53.90
63966;DHT22;50151;52.030;5.350;2022-08-25T18:56:24;28.00;54.30
63966;DHT22;50151;52.030;5.350;2022-08-25T18:58:51;27.80;55.40
63966;DHT22;50151;52.030;5.350;2022-08-25T19:01:18;27.90;55.30
63966;DHT22;50151;52.030;5.350;2022-08-25T19:03:47;27.90;55.40
63966;DHT22;50151;52.030;5.350;2022-08-25T19:06:15;27.70;55.80
63966;DHT22;50151;52.030;5.350;2022-08-25T19:08:41;27.70;56.20
63966;DHT22;50151;52.030;5.350;2022-08-25T19:11:09;27.60;56.50
63966;DHT22;50151;52.030;5.350;2022-08-25T19:13:37;27.70;56.70
63966;DHT22;50151;52.030;5.350;2022-08-25T19:16:15;27.40;57.20
63966;DHT22;50151;52.030;5.350;2022-08-25T19:18:46;27.40;57.60
63966;DHT22;50151;52.030;5.350;2022-08-25T19:21:14;27.10;58.20
63966;DHT22;50151;52.030;5.350;2022-08-25T19:23:41;27.10;58.20
63966;DHT22;50151;52.030;5.350;2022-08-25T19:26:09;27.00;58.60
63966;DHT22;50151;52.030;5.350;2022-08-25T19:28:44;26.90;58.60
63966;DHT22;50151;52.030;5.350;2022-08-25T19:31:13;26.80;58.90
63966;DHT22;50151;52.030;5.350;2022-08-25T19:33:43;26.50;59.80
63966;DHT22;50151;52.030;5.350;2022-08-25T19:36:11;26.30;60.60
63966;DHT22;50151;52.030;5.350;2022-08-25T19:38:38;26.50;60.40
63966;DHT22;50151;52.030;5.350;2022-08-25T19:41:06;26.40;60.60
63966;DHT22;50151;52.030;5.350;2022-08-25T19:43:41;26.20;61.20
63966;DHT22;50151;52.030;5.350;2022-08-25T19:46:25;26.10;62.10
63966;DHT22;50151;52.030;5.350;2022-08-25T19:49:07;26.10;62.20
63966;DHT22;50151;52.030;5.350;2022-08-25T19:51:39;25.90;62.90
63966;DHT22;50151;52.030;5.350;2022-08-25T19:54:11;25.70;63.60
63966;DHT22;50151;52.030;5.350;2022-08-25T19:56:38;25.40;64.50
63966;DHT22;50151;52.030;5.350;2022-08-25T19:59:21;25.60;64.80
63966;DHT22;50151;52.030;5.350;2022-08-25T20:01:48;25.50;65.30
63966;DHT22;50151;52.030;5.350;2022-08-25T20:04:15;25.60;65.20
63966;DHT22;50151;52.030;5.350;2022-08-25T20:06:42;25.50;65.20
63966;DHT22;50151;52.030;5.350;2022-08-25T20:09:14;25.20;66.20
63966;DHT22;50151;52.030;5.350;2022-08-25T20:12:01;25.20;66.50
63966;DHT22;50151;52.030;5.350;2022-08-25T20:14:31;25.40;66.40
63966;DHT22;50151;52.030;5.350;2022-08-25T20:17:00;25.20;66.40
63966;DHT22;50151;52.030;5.350;2022-08-25T20:19:28;25.40;66.70
63966;DHT22;50151;52.030;5.350;2022-08-25T20:21:56;25.00;67.20
63966;DHT22;50151;52.030;5.350;2022-08-25T20:24:24;25.10;67.30
63966;DHT22;50151;52.030;5.350;2022-08-25T20:27:09;25.30;67.00
63966;DHT22;50151;52.030;5.350;2022-08-25T20:29:36;25.00;67.00
63966;DHT22;50151;52.030;5.350;2022-08-25T20:32:04;25.10;68.00
63966;DHT22;50151;52.030;5.350;2022-08-25T20:34:30;25.00;67.60
63966;DHT22;50151;52.030;5.350;2022-08-25T20:36:59;24.60;68.70
63966;DHT22;50151;52.030;5.350;2022-08-25T20:39:26;24.60;68.70
63966;DHT22;50151;52.030;5.350;2022-08-25T20:41:53;24.40;69.30
63966;DHT22;50151;52.030;5.350;2022-08-25T20:44:20;24.30;69.20
63966;DHT22;50151;52.030;5.350;2022-08-25T20:46:48;24.40;69.00
63966;DHT22;50151;52.030;5.350;2022-08-25T20:49:17;24.30;69.20
63966;DHT22;50151;52.030;5.350;2022-08-25T20:51:45;24.20;70.00
63966;DHT22;50151;52.030;5.350;2022-08-25T20:54:15;24.20;69.90
